Time;durP1;ratioP1;P1;durP2;ratioP2;P2;SDS_P1;SDS_P2;PMS_P1;PMS_P2;Temp;Humidity;BMP_temperature;BMP_pressure;BME280_temperature;BME280_humidity;BME280_pressure;Samples;Min_cycle;Max_cycle;Signal;HPM_P1;HPM_P2
2023/09/18 00:01:23;;;;;;;;;;;;;;;17.98;100.00;100557.56;5014568;28;1183;-76
2023/09/18 00:03:48;;;;;;;;;;;;;;;17.96;100.00;100543.81;5025720;28;1098;-78
2023/09/18 00:06:13;;;;;;;;;;;;;;;17.99;100.00;100550.50;5030461;28;1373;-76
2023/09/18 00:08:39;;;;;;;;;;;;;;;17.98;100.00;100547.06;5007693;28;1925;-76
2023/09/18 00:11:04;;;;;;;;;;;;;;;17.97;100.00;100534.13;5021228;28;994;-77
2023/09/18 00:13:29;;;;;;;;;;;;;;;17.94;100.00;100524.78;5027326;28;1399;-76
2023/09/18 00:15:55;;;;;;;;;;;;;;;17.93;100.00;100517.91;5012549;28;1531;-80
2023/09/18 00:18:21;;;;;;;;;;;;;;;17.93;100.00;100517.09;5035898;28;1205;-81
2023/09/18 00:20:48;;;;;;;;;;;;;;;17.91;100.00;100509.44;5037822;28;1072;-81
2023/09/18 00:23:13;;;;;;;;;;;;;;;17.90;100.00;100502.56;5030125;28;1138;-81
2023/09/18 00:25:42;;;;;;;;;;;;;;;17.90;100.00;100497.31;5033364;28;1226;-80
2023/09/18 00:28:07;;;;;;;;;;;;;;;17.89;100.00;100506.19;5015595;28;1898;-81
2023/09/18 00:30:32;;;;;;;;;;;;;;;17.88;100.00;100504.53;5013659;28;1511;-81
2023/09/18 00:32:57;;;;;;;;;;;;;;;17.87;100.00;100513.41;5032495;28;1076;-80
2023/09/18 00:35:23;;;;;;;;;;;;;;;17.86;100.00;100506.53;5023193;28;1162;-79
2023/09/18 00:37:49;;;;;;;;;;;;;;;17.86;100.00;100489.97;5011083;28;1339;-80
2023/09/18 00:40:14;;;;;;;;;;;;;;;17.87;100.00;100481.09;5014601;28;1337;-81
2023/09/18 00:42:39;;;;;;;;;;;;;;;17.86;100.00;100480.28;5033549;28;1341;-80
2023/09/18 00:45:05;;;;;;;;;;;;;;;17.86;100.00;100468.97;5034169;28;1269;-81
2023/09/18 00:47:30;;;;;;;;;;;;;;;17.85;100.00;100468.16;5030682;28;1956;-81
2023/09/18 00:49:55;;;;;;;;;;;;;;;17.84;100.00;100453.44;5029878;28;1031;-81
2023/09/18 00:52:22;;;;;;;;;;;;;;;17.83;100.00;100451.78;5030923;28;1029;-80
2023/09/18 00:54:47;;;;;;;;;;;;;;;17.84;100.00;100444.75;5029405;28;1261;-80
2023/09/18 00:57:13;;;;;;;;;;;;;;;17.84;100.00;100440.31;5029857;28;1124;-81
2023/09/18 00:59:38;;;;;;;;;;;;;;;17.83;100.00;100443.09;5031146;28;1145;-80
2023/09/18 01:02:03;;;;;;;;;;;;;;;17.83;100.00;100437.84;5034273;28;1034;-76
2023/09/18 01:04:29;;;;;;;;;;;;;;;17.84;100.00;100436.88;5028716;28;981;-76
2023/09/18 01:06:56;;;;;;;;;;;;;;;17.83;100.00;100428.16;5028961;28;1556;-76
2023/09/18 01:09:22;;;;;;;;;;;;;;;17.84;100.00;100418.50;5027858;28;1981;-76
2023/09/18 01:12:11;;;;;;;;;;;;;;;17.84;100.00;100421.94;5010570;28;1243;-75
2023/09/18 01:14:42;;;;;;;;;;;;;;;17.86;100.00;100412.06;5017181;28;1023;-76
2023/09/18 01:17:10;;;;;;;;;;;;;;;17.86;100.00;100409.44;5007729;28;1755;-76
2023/09/18 01:19:39;;;;;;;;;;;;;;;17.87;100.00;100403.19;5030393;28;1324;-76
2023/09/18 01:22:05;;;;;;;;;;;;;;;17.89;100.00;100389.91;5009358;28;1331;-76
2023/09/18 01:24:31;;;;;;;;;;;;;;;17.92;100.00;100385.09;5025903;28;1188;-76
2023/09/18 01:26:56;;;;;;;;;;;;;;;17.94;100.00;100372.59;5019225;28;1554;-76
2023/09/18 01:29:22;;;;;;;;;;;;;;;17.94;100.00;100367.34;5031602;28;1898;-76
2023/09/18 01:31:48;;;;;;;;;;;;;;;17.95;100.00;100369.00;5019239;28;1247;-76
2023/09/18 01:34:14;;;;;;;;;;;;;;;17.97;100.00;100355.69;5015927;28;1339;-75
2023/09/18 01:36:40;;;;;;;;;;;;;;;17.97;100.00;100351.25;5039738;28;1312;-76
2023/09/18 01:39:06;;;;;;;;;;;;;;;17.99;100.00;100354.50;5034384;28;1079;-76
2023/09/18 01:41:31;;;;;;;;;;;;;;;18.00;100.00;100358.75;5034996;28;1123;-76
2023/09/18 01:43:56;;;;;;;;;;;;;;;18.02;100.00;100363.84;5018458;28;1272;-81
2023/09/18 01:46:22;;;;;;;;;;;;;;;18.02;100.00;100359.38;5027817;28;1218;-80
2023/09/18 01:48:47;;;;;;;;;;;;;;;18.02;100.00;100362.00;5028116;28;1889;-80
2023/09/18 01:51:16;;;;;;;;;;;;;;;18.04;100.00;100360.00;5031918;28;1048;-80
2023/09/18 01:53:41;;;;;;;;;;;;;;;18.07;100.00;100363.28;5015571;28;1105;-80
2023/09/18 01:56:07;;;;;;;;;;;;;;;18.09;100.00;100369.16;5010814;28;1216;-80
2023/09/18 01:58:32;;;;;;;;;;;;;;;18.10;100.00;100370.78;5028337;28;1260;-81
2023/09/18 02:01:00;;;;;;;;;;;;;;;18.10;100.00;100376.03;5012538;28;1153;-80
2023/09/18 02:03:25;;;;;;;;;;;;;;;18.11;100.00;100372.38;5032706;28;1081;-80
2023/09/18 02:05:50;;;;;;;;;;;;;;;18.14;100.00;100377.28;5030860;28;1068;-79
2023/09/18 02:08:16;;;;;;;;;;;;;;;18.15;100.00;100378.91;5026786;28;1886;-80
2023/09/18 02:10:41;;;;;;;;;;;;;;;18.16;100.00;100370.03;5024543;28;1378;-79
2023/09/18 02:13:06;;;;;;;;;;;;;;;18.16;100.00;100370.03;5012351;28;1144;-80
2023/09/18 02:15:32;;;;;;;;;;;;;;;18.18;100.00;100368.00;4991411;28;1061183;-81
2023/09/18 02:17:57;;;;;;;;;;;;;;;18.18;100.00;100365.38;5030106;28;1208;-80
2023/09/18 02:20:22;;;;;;;;;;;;;;;18.18;100.00;100357.50;5003210;28;1398;-79
2023/09/18 02:22:48;;;;;;;;;;;;;;;18.19;100.00;100354.72;5021049;28;1092;-79
2023/09/18 02:25:13;;;;;;;;;;;;;;;18.21;100.00;100354.53;5023004;28;1079;-80
2023/09/18 02:27:38;;;;;;;;;;;;;;;18.21;100.00;100342.22;5034537;28;1937;-80
2023/09/18 02:30:04;;;;;;;;;;;;;;;18.21;100.00;100342.22;5036169;28;1679;-81
2023/09/18 02:32:29;;;;;;;;;;;;;;;18.19;100.00;100323.22;5027264;28;1112;-81
2023/09/18 02:34:55;;;;;;;;;;;;;;;18.17;100.00;100313.91;5039980;28;1146;-81
2023/09/18 02:37:20;;;;;;;;;;;;;;;18.18;100.00;100318.16;5041258;28;1226;-81
2023/09/18 02:39:45;;;;;;;;;;;;;;;18.17;100.00;100313.91;5032689;28;1264;-80
2023/09/18 02:42:10;;;;;;;;;;;;;;;18.16;100.00;100312.28;5035817;28;986;-81
2023/09/18 02:44:35;;;;;;;;;;;;;;;18.16;100.00;100301.78;5040016;28;1253;-80
2023/09/18 02:47:01;;;;;;;;;;;;;;;18.16;100.00;100296.53;5031696;28;1286;-81
2023/09/18 02:49:26;;;;;;;;;;;;;;;18.16;100.00;100299.16;5018604;28;1946;-81
2023/09/18 02:51:51;;;;;;;;;;;;;;;18.14;100.00;100288.84;5027736;28;1266;-81
2023/09/18 02:54:16;;;;;;;;;;;;;;;18.15;100.00;100268.66;5013908;28;1353;-76
2023/09/18 02:56:41;;;;;;;;;;;;;;;18.16;100.00;100254.53;5033575;28;1196;-76
2023/09/18 02:59:07;;;;;;;;;;;;;;;18.15;100.00;100247.66;5018224;28;1200;-75
2023/09/18 03:01:32;;;;;;;;;;;;;;;18.16;100.00;100238.78;5033899;28;1153;-75
2023/09/18 03:03:57;;;;;;;;;;;;;;;18.16;100.00;100228.28;5026214;28;1142;-75
2023/09/18 03:06:23;;;;;;;;;;;;;;;18.17;100.00;100235.97;5015842;28;1526;-76
2023/09/18 03:08:48;;;;;;;;;;;;;;;18.17;100.00;100229.91;5033046;28;1902;-76
2023/09/18 03:11:14;;;;;;;;;;;;;;;18.17;100.00;100229.91;5011302;28;1503;-77
2023/09/18 03:13:42;;;;;;;;;;;;;;;18.17;100.00;100229.91;5032358;28;1092;-76
2023/09/18 03:16:09;;;;;;;;;;;;;;;18.16;100.00;100223.03;5032637;28;1300;-76
2023/09/18 03:18:35;;;;;;;;;;;;;;;18.16;100.00;100236.97;5015673;28;1270;-76
2023/09/18 03:21:00;;;;;;;;;;;;;;;18.16;100.00;100244.84;5014280;28;1234;-76
2023/09/18 03:23:25;;;;;;;;;;;;;;;18.17;100.00;100256.16;5031623;28;1101;-76
2023/09/18 03:25:50;;;;;;;;;;;;;;;18.17;100.00;100250.91;5021848;28;1281;-76
2023/09/18 03:28:15;;;;;;;;;;;;;;;18.16;100.00;100254.53;5022049;28;1965;-75
2023/09/18 03:30:41;;;;;;;;;;;;;;;18.16;100.00;100254.53;5029618;28;1079;-76
2023/09/18 03:33:06;;;;;;;;;;;;;;;18.20;100.00;100240.03;5027624;28;948;-76
2023/09/18 03:35:32;;;;;;;;;;;;;;;18.20;100.00;100234.78;5023314;28;1303;-81
2023/09/18 03:37:57;;;;;;;;;;;;;;;18.21;100.00;100233.78;5034547;28;1041;-80
2023/09/18 03:40:23;;;;;;;;;;;;;;;18.21;100.00;100239.03;5038395;28;1128;-78
2023/09/18 03:42:49;;;;;;;;;;;;;;;18.21;100.00;100246.91;5034810;28;1051;-80
2023/09/18 03:45:14;;;;;;;;;;;;;;;18.20;100.00;100234.78;5034601;28;1401;-80
2023/09/18 03:47:40;;;;;;;;;;;;;;;18.21;100.00;100252.16;5023457;28;1948;-80
2023/09/18 03:50:06;;;;;;;;;;;;;;;18.21;100.00;100241.66;5014267;28;1689;-77
2023/09/18 03:52:31;;;;;;;;;;;;;;;18.21;100.00;100231.16;5035190;28;1148;-81
2023/09/18 03:54:57;;;;;;;;;;;;;;;18.21;100.00;100212.78;5033877;28;1241;-81
2023/09/18 03:57:22;;;;;;;;;;;;;;;18.21;100.00;100210.97;5034775;28;965;-80
2023/09/18 03:59:47;;;;;;;;;;;;;;;18.22;100.00;100201.28;5035884;28;1068;-81
2023/09/18 04:02:12;;;;;;;;;;;;;;;18.21;100.00;100205.72;5014836;28;1181;-81
2023/09/18 04:04:37;;;;;;;;;;;;;;;18.22;100.00;100228.34;5011739;28;1337;-79
2023/09/18 04:07:06;;;;;;;;;;;;;;;18.24;100.00;100230.78;5015334;28;1468;-80
2023/09/18 04:09:32;;;;;;;;;;;;;;;18.25;100.00;100222.72;5032570;28;1902;-80
2023/09/18 04:11:57;;;;;;;;;;;;;;;18.26;100.00;100223.53;5012042;28;1136;-80
2023/09/18 04:14:22;;;;;;;;;;;;;;;18.26;100.00;100218.28;5037382;28;1110;-81
2023/09/18 04:16:48;;;;;;;;;;;;;;;18.26;100.00;100203.34;5028177;28;1336;-75
2023/09/18 04:19:13;;;;;;;;;;;;;;;18.25;100.00;100185.16;5008925;28;1768;-76
2023/09/18 04:21:40;;;;;;;;;;;;;;;18.26;100.00;100202.53;5028064;28;1084;-76
2023/09/18 04:24:06;;;;;;;;;;;;;;;18.27;100.00;100215.47;5031388;28;1085;-76
2023/09/18 04:26:31;;;;;;;;;;;;;;;18.27;100.00;100222.53;5034447;28;1293;-76
2023/09/18 04:28:57;;;;;;;;;;;;;;;18.29;100.00;100223.13;5034500;28;1970;-76
2023/09/18 04:31:22;;;;;;;;;;;;;;;18.29;100.00;100223.13;5026368;28;1020;-76
2023/09/18 04:33:48;;;;;;;;;;;;;;;18.31;100.00;100221.97;5017674;28;1095;-75
2023/09/18 04:36:13;;;;;;;;;;;;;;;18.30;100.00;100224.78;5011017;28;1577;-75
2023/09/18 04:38:38;;;;;;;;;;;;;;;18.29;100.00;100223.97;5032039;28;1181;-76
2023/09/18 04:41:04;;;;;;;;;;;;;;;18.29;100.00;100223.13;5017075;28;1332;-76
2023/09/18 04:43:29;;;;;;;;;;;;;;;18.28;100.00;100217.06;5017062;28;1085;-76
2023/09/18 04:45:55;;;;;;;;;;;;;;;18.27;100.00;100220.72;5016598;28;1063;-75
2023/09/18 04:48:20;;;;;;;;;;;;;;;18.26;100.00;100218.28;5035281;28;1906;-75
2023/09/18 04:50:45;;;;;;;;;;;;;;;18.25;100.00;100211.41;5012540;28;1316;-76
2023/09/18 04:53:11;;;;;;;;;;;;;;;18.24;100.00;100204.53;5033433;28;1134;-76
2023/09/18 04:55:38;;;;;;;;;;;;;;;18.25;100.00;100190.41;5033658;28;1570;-76
2023/09/18 04:58:04;;;;;;;;;;;;;;;18.25;100.00;100190.41;5036406;28;944;-80
2023/09/18 05:00:29;;;;;;;;;;;;;;;18.26;100.00;100181.53;5028004;28;1309;-79
2023/09/18 05:02:55;;;;;;;;;;;;;;;18.27;100.00;100172.66;5027085;28;1244;-81
2023/09/18 05:05:20;;;;;;;;;;;;;;;18.27;100.00;100164.78;5045368;28;1024;-80
2023/09/18 05:07:46;;;;;;;;;;;;;;;18.26;100.00;100150.03;5040017;28;1943;-81
2023/09/18 05:10:11;;;;;;;;;;;;;;;18.27;100.00;100151.66;5037364;28;1515;-81
2023/09/18 05:12:38;;;;;;;;;;;;;;;18.25;100.00;100161.53;5031142;28;1216;-80
2023/09/18 05:15:04;;;;;;;;;;;;;;;18.25;100.00;100153.66;5038077;28;989;-81
2023/09/18 05:17:41;;;;;;;;;;;;;;;18.24;100.00;100162.56;5028025;28;1267;-81
2023/09/18 05:20:07;;;;;;;;;;;;;;;18.25;100.00;100151.03;5031599;28;1054;-80
2023/09/18 05:22:32;;;;;;;;;;;;;;;18.25;100.00;100157.09;5034600;28;1260;-81
2023/09/18 05:24:57;;;;;;;;;;;;;;;18.25;100.00;100158.91;5031907;28;1254;-80
2023/09/18 05:27:25;;;;;;;;;;;;;;;18.25;100.00;100161.53;5029463;28;1142;-80
2023/09/18 05:29:50;;;;;;;;;;;;;;;18.24;100.00;100162.56;5030486;28;1913;-81
2023/09/18 05:32:15;;;;;;;;;;;;;;;18.26;100.00;100165.78;5017108;28;1295;-81
2023/09/18 05:34:40;;;;;;;;;;;;;;;18.26;100.00;100171.03;5032703;28;1141;-82
2023/09/18 05:37:05;;;;;;;;;;;;;;;18.24;100.00;100173.06;5015477;28;1195;-81
2023/09/18 05:39:31;;;;;;;;;;;;;;;18.22;100.00;100175.03;5015572;28;1168;-81
2023/09/18 05:41:56;;;;;;;;;;;;;;;18.21;100.00;100179.47;5031811;28;1244;-81
2023/09/18 05:44:22;;;;;;;;;;;;;;;18.21;100.00;100189.16;5016250;28;1307;-80
2023/09/18 05:46:47;;;;;;;;;;;;;;;18.21;100.00;100182.09;5016206;28;1116;-81
2023/09/18 05:49:12;;;;;;;;;;;;;;;18.22;100.00;100193.41;5013009;28;1894;-81
2023/09/18 05:51:37;;;;;;;;;;;;;;;18.23;100.00;100197.66;5010368;28;1209;-80
2023/09/18 05:54:03;;;;;;;;;;;;;;;18.24;100.00;100200.09;5025570;28;1168;-81
2023/09/18 05:56:28;;;;;;;;;;;;;;;18.25;100.00;100200.91;5026441;28;1165;-81
2023/09/18 05:58:55;;;;;;;;;;;;;;;18.24;100.00;100191.44;5025057;28;1348;-81
2023/09/18 06:01:20;;;;;;;;;;;;;;;18.23;100.00;100192.41;5021056;28;1056;-81
2023/09/18 06:03:45;;;;;;;;;;;;;;;18.20;100.00;100205.91;5019261;28;1083;-80
2023/09/18 06:06:10;;;;;;;;;;;;;;;18.16;100.00;100204.66;5029346;28;1122;-81
2023/09/18 06:08:36;;;;;;;;;;;;;;;18.16;100.00;100208.09;5017551;28;1902;-81
2023/09/18 06:11:01;;;;;;;;;;;;;;;18.17;100.00;100222.03;5034983;28;1223;-80
2023/09/18 06:13:27;;;;;;;;;;;;;;;18.17;100.00;100219.41;5033473;28;1039;-79
2023/09/18 06:15:54;;;;;;;;;;;;;;;18.20;100.00;100213.78;5028991;28;1076;-80
2023/09/18 06:18:20;;;;;;;;;;;;;;;18.20;100.00;100208.53;5013920;28;1286;-79
2023/09/18 06:20:45;;;;;;;;;;;;;;;18.18;100.00;100205.28;5031218;28;1078;-80
2023/09/18 06:23:11;;;;;;;;;;;;;;;18.18;100.00;100221.88;5027337;28;1141;-79
2023/09/18 06:25:37;;;;;;;;;;;;;;;18.20;100.00;100224.28;5030356;28;1125;-81
2023/09/18 06:28:03;;;;;;;;;;;;;;;18.19;100.00;100218.22;5027114;28;1898;-80
2023/09/18 06:30:30;;;;;;;;;;;;;;;18.18;100.00;100221.03;5029081;28;1265;-80
2023/09/18 06:32:55;;;;;;;;;;;;;;;18.20;100.00;100234.78;5028998;28;1036;-79
2023/09/18 06:35:21;;;;;;;;;;;;;;;18.19;100.00;100233.19;5015190;28;1290;-81
2023/09/18 06:37:46;;;;;;;;;;;;;;;18.18;100.00;100223.66;5024552;28;1249;-80
2023/09/18 06:40:11;;;;;;;;;;;;;;;18.18;100.00;100221.03;5024782;28;1043;-81
2023/09/18 06:42:37;;;;;;;;;;;;;;;18.18;100.00;100221.03;5028004;28;1244;-81
2023/09/18 06:45:06;;;;;;;;;;;;;;;18.17;100.00;100224.66;5031743;28;1147;-80
2023/09/18 06:47:31;;;;;;;;;;;;;;;18.17;100.00;100227.28;5009535;28;1347;-81
2023/09/18 06:49:57;;;;;;;;;;;;;;;18.17;100.00;100224.66;5033385;28;1910;-81
2023/09/18 06:52:22;;;;;;;;;;;;;;;18.17;100.00;100240.41;5014078;28;1196;-81
2023/09/18 06:54:48;;;;;;;;;;;;;;;18.17;100.00;100248.28;5011487;28;1311;-79
2023/09/18 06:57:13;;;;;;;;;;;;;;;18.18;100.00;100252.53;5011116;28;1319;-80
2023/09/18 06:59:38;;;;;;;;;;;;;;;18.18;100.00;100245.50;5026302;28;1495;-81
2023/09/18 07:02:03;;;;;;;;;;;;;;;18.22;100.00;100248.53;5028182;28;1131;-80
2023/09/18 07:04:28;;;;;;;;;;;;;;;18.21;100.00;100246.91;5027498;28;1094;-81
2023/09/18 07:06:54;;;;;;;;;;;;;;;18.21;100.00;100254.78;5027572;28;1094;-80
2023/09/18 07:09:22;;;;;;;;;;;;;;;18.23;100.00;100255.41;5013188;28;1902;-81
2023/09/18 07:11:48;;;;;;;;;;;;;;;18.23;100.00;100250.16;5027100;28;1516;-80
2023/09/18 07:14:13;;;;;;;;;;;;;;;18.23;100.00;100244.91;5036764;28;1197;-80
2023/09/18 07:16:38;;;;;;;;;;;;;;;18.24;100.00;100241.31;5030820;28;1030;-80
2023/09/18 07:19:04;;;;;;;;;;;;;;;18.24;100.00;100236.06;5020436;28;1212;-80
2023/09/18 07:21:29;;;;;;;;;;;;;;;18.25;100.00;100232.41;5024073;28;1266;-81
2023/09/18 07:23:55;;;;;;;;;;;;;;;18.25;100.00;100240.28;5032198;28;1373;-80
2023/09/18 07:26:20;;;;;;;;;;;;;;;18.24;100.00;100236.06;5032691;28;943;-81
2023/09/18 07:28:46;;;;;;;;;;;;;;;18.25;100.00;100238.47;5035934;28;1977;-79
2023/09/18 07:31:12;;;;;;;;;;;;;;;18.26;100.00;100232.22;5034742;28;1743;-80
2023/09/18 07:33:37;;;;;;;;;;;;;;;18.28;100.00;100237.28;5037175;28;1005;-81
2023/09/18 07:36:03;;;;;;;;;;;;;;;18.28;100.00;100237.28;5037749;28;1088;-81
2023/09/18 07:38:28;;;;;;;;;;;;;;;18.27;100.00;100246.97;5021228;28;1200;-81
2023/09/18 07:40:54;;;;;;;;;;;;;;;18.28;100.00;100253.03;5015631;28;1318;-80
2023/09/18 07:43:20;;;;;;;;;;;;;;;18.27;100.00;100256.66;5020567;28;1399;-80
2023/09/18 07:45:45;;;;;;;;;;;;;;;18.28;100.00;100268.78;5039487;28;1129;-79
2023/09/18 07:48:10;;;;;;;;;;;;;;;18.27;100.00;100267.16;5029932;28;2319;-80
2023/09/18 07:50:35;;;;;;;;;;;;;;;18.28;100.00;100260.91;5034720;28;1217;-80
2023/09/18 07:53:01;;;;;;;;;;;;;;;18.28;100.00;100258.28;5015790;28;1272;-80
2023/09/18 07:55:26;;;;;;;;;;;;;;;18.29;100.00;100257.28;5035014;28;1129;-79
2023/09/18 07:57:51;;;;;;;;;;;;;;;18.31;100.00;100257.91;5029633;28;1051;-80
2023/09/18 08:00:17;;;;;;;;;;;;;;;18.32;100.00;100254.28;5011282;28;1190;-80
2023/09/18 08:02:42;;;;;;;;;;;;;;;18.35;100.00;100259.16;5012128;28;1403;-80
2023/09/18 08:05:08;;;;;;;;;;;;;;;18.36;100.00;100266.03;5029551;28;1242;-80
2023/09/18 08:07:35;;;;;;;;;;;;;;;18.38;100.00;100263.22;5013722;28;1173;-81
2023/09/18 08:10:00;;;;;;;;;;;;;;;18.37;100.00;100256.34;5023442;28;1961;-81
2023/09/18 08:12:25;;;;;;;;;;;;;;;18.37;100.00;100256.34;5023950;28;1288;-81
2023/09/18 08:14:50;;;;;;;;;;;;;;;18.35;100.00;100253.91;5013813;28;1247;-79
2023/09/18 08:17:16;;;;;;;;;;;;;;;18.34;100.00;100260.13;5027634;28;1017;-80
2023/09/18 08:19:42;;;;;;;;;;;;;;;18.35;100.00;100269.66;5023635;28;985;-81
2023/09/18 08:22:07;;;;;;;;;;;;;;;18.34;100.00;100265.38;5028706;28;1264;-80
2023/09/18 08:24:33;;;;;;;;;;;;;;;18.36;100.00;100270.47;5032537;28;1020;-80
2023/09/18 08:26:58;;;;;;;;;;;;;;;18.38;100.00;100269.28;5041880;28;1127;-79
2023/09/18 08:29:23;;;;;;;;;;;;;;;18.40;100.00;100269.06;5021439;28;1890;-80
2023/09/18 08:31:50;;;;;;;;;;;;;;;18.40;100.00;100283.00;5003547;28;1302;-80
2023/09/18 08:34:15;;;;;;;;;;;;;;;18.43;100.00;100273.97;5032784;28;990;-80
2023/09/18 08:36:40;;;;;;;;;;;;;;;18.48;100.00;100290.78;5039086;28;1097;-79
2023/09/18 08:39:06;;;;;;;;;;;;;;;18.52;100.00;100281.53;5024940;28;1277;-80
2023/09/18 08:41:32;;;;;;;;;;;;;;;18.56;100.00;100288.00;5015856;28;1206;-80
2023/09/18 08:44:01;;;;;;;;;;;;;;;18.64;100.00;100291.47;5031403;28;1167;-81
2023/09/18 08:46:26;;;;;;;;;;;;;;;18.67;100.00;100296.38;5027688;28;1074;-80
2023/09/18 08:48:52;;;;;;;;;;;;;;;18.68;100.00;100300.63;5035978;28;1961;-79
2023/09/18 08:51:18;;;;;;;;;;;;;;;18.66;100.00;100298.19;5029141;28;1021;-81
2023/09/18 08:53:43;;;;;;;;;;;;;;;18.67;100.00;100299.00;5026159;28;1154;-81
2023/09/18 08:56:09;;;;;;;;;;;;;;;18.67;100.00;100304.25;5034548;28;1112;-81
2023/09/18 08:58:37;;;;;;;;;;;;;;;18.65;100.00;100301.00;5030264;28;1288;-80
2023/09/18 09:01:09;;;;;;;;;;;;;;;18.67;100.00;100297.22;5026010;28;1021;-80
2023/09/18 09:03:35;;;;;;;;;;;;;;;18.71;100.00;100295.84;5010357;28;1453;-79
2023/09/18 09:06:01;;;;;;;;;;;;;;;18.71;100.00;100308.97;5014456;28;1195;-80
2023/09/18 09:08:27;;;;;;;;;;;;;;;18.71;100.00;100300.28;5004997;28;1965;-79
2023/09/18 09:10:52;;;;;;;;;;;;;;;18.72;100.00;100296.63;5022251;28;1221;-81
2023/09/18 09:13:17;;;;;;;;;;;;;;;18.78;100.00;100301.13;5027093;28;1159;-81
2023/09/18 09:15:47;;;;;;;;;;;;;;;18.78;100.00;100301.13;5006566;28;1366;-80
2023/09/18 09:18:14;;;;;;;;;;;;;;;18.81;100.00;100295.50;5025154;28;1257;-82
2023/09/18 09:20:40;;;;;;;;;;;;;;;18.89;100.00;100302.41;5022770;28;1485;-81
2023/09/18 09:23:09;;;;;;;;;;;;;;;18.97;100.00;100295.19;5014562;28;1315;-80
2023/09/18 09:25:34;;;;;;;;;;;;;;;19.06;100.00;100293.22;5019357;28;1098;-80
2023/09/18 09:28:00;;;;;;;;;;;;;;;19.14;100.00;100300.13;5016394;28;1961;-81
2023/09/18 09:30:27;;;;;;;;;;;;;;;19.26;100.00;100293.31;5034349;28;1031;-79
2023/09/18 09:32:53;;;;;;;;;;;;;;;19.32;100.00;100297.78;5027466;28;1131;-80
2023/09/18 09:35:19;;;;;;;;;;;;;;;19.45;100.00;100303.13;5033339;28;1088;-81
2023/09/18 09:37:44;;;;;;;;;;;;;;;19.54;100.00;100307.19;5014454;28;1324;-81
2023/09/18 09:40:14;;;;;;;;;;;;;;;19.62;100.00;100308.91;5007190;28;1452;-81
2023/09/18 09:42:39;;;;;;;;;;;;;;;19.74;100.00;100311.78;5018742;28;1299;-81
2023/09/18 09:45:11;;;;;;;;;;;;;;;19.87;100.00;100327.59;5024547;28;1071;-81
2023/09/18 09:47:37;;;;;;;;;;;;;;;20.05;100.00;100335.75;5017703;28;1366;-79
2023/09/18 09:50:06;;;;;;;;;;;;;;;20.09;100.00;100339.59;5035420;28;1960;-80
2023/09/18 09:52:33;;;;;;;;;;;;;;;20.16;100.00;100347.53;5033358;28;1086;-81
2023/09/18 09:54:58;;;;;;;;;;;;;;;20.15;100.00;100345.91;5036851;28;1141;-80
2023/09/18 09:57:23;;;;;;;;;;;;;;;20.14;100.00;100344.28;5025372;28;1289;-82
2023/09/18 09:59:49;;;;;;;;;;;;;;;20.09;100.00;100347.50;5034752;28;1261;-81
2023/09/18 10:02:19;;;;;;;;;;;;;;;20.08;100.00;100351.16;5026447;28;1554;-81
2023/09/18 10:04:48;;;;;;;;;;;;;;;20.08;100.00;100340.63;5028746;28;1292;-81
2023/09/18 10:07:13;;;;;;;;;;;;;;;20.10;100.00;100346.50;5028947;28;1261;-81
2023/09/18 10:09:41;;;;;;;;;;;;;;;20.15;100.00;100351.16;5028074;28;1987;-82
2023/09/18 10:12:10;;;;;;;;;;;;;;;20.20;100.00;100343.50;5017872;28;985;-81
2023/09/18 10:14:36;;;;;;;;;;;;;;;20.32;100.00;100356.88;5030168;28;1116;-82
2023/09/18 10:17:08;;;;;;;;;;;;;;;20.39;100.00;100362.97;5024657;28;1431;-80
2023/09/18 10:19:39;;;;;;;;;;;;;;;20.45;100.00;100362.16;5020128;28;1960;-80
2023/09/18 10:22:22;;;;;;;;;;;;;;;20.50;100.00;100372.13;5014737;28;1869;-82
2023/09/18 10:24:50;;;;;;;;;;;;;;;20.51;100.00;100381.66;5011905;28;2012;-82
2023/09/18 10:27:17;;;;;;;;;;;;;;;20.47;100.00;100381.22;5015942;28;1844;-81
2023/09/18 10:29:44;;;;;;;;;;;;;;;20.47;100.00;100394.41;5016136;28;1926;-81
2023/09/18 10:32:10;;;;;;;;;;;;;;;20.49;99.84;100388.94;5000833;28;1943;-81
2023/09/18 10:34:36;;;;;;;;;;;;;;;20.54;98.06;100389.97;5012515;28;1977;-81
2023/09/18 10:37:06;;;;;;;;;;;;;;;20.44;98.94;100386.88;5017687;28;2282;-81
2023/09/18 10:39:34;;;;;;;;;;;;;;;20.43;98.45;100390.53;5014416;28;1897;-80
2023/09/18 10:42:01;;;;;;;;;;;;;;;20.45;98.39;100388.50;5025747;28;1854;-81
2023/09/18 10:44:27;;;;;;;;;;;;;;;20.45;98.28;100383.22;5013361;28;1201;-81
2023/09/18 10:46:53;;;;;;;;;;;;;;;20.41;97.70;100387.25;5032234;28;1248;-81
2023/09/18 10:49:18;;;;;;;;;;;;;;;20.38;97.02;100387.69;5011734;28;1968;-80
2023/09/18 10:51:45;;;;;;;;;;;;;;;20.34;98.03;100386.44;5030178;28;1379;-81
2023/09/18 10:54:11;;;;;;;;;;;;;;;20.32;97.85;100383.22;5026417;28;1091;-82
2023/09/18 10:56:37;;;;;;;;;;;;;;;20.30;96.84;100379.94;5012654;28;1121;-80
2023/09/18 10:59:05;;;;;;;;;;;;;;;20.31;96.51;100376.31;5030574;28;1232;-81
2023/09/18 11:01:30;;;;;;;;;;;;;;;20.33;96.70;100377.75;5030895;28;1238;-81
2023/09/18 11:04:03;;;;;;;;;;;;;;;20.39;95.88;100368.22;5027257;28;1374;-81
2023/09/18 11:06:29;;;;;;;;;;;;;;;20.38;96.51;100372.69;5013938;28;1285;-79
2023/09/18 11:09:03;;;;;;;;;;;;;;;20.44;95.89;100371.06;5037402;28;1969;-81
2023/09/18 11:11:29;;;;;;;;;;;;;;;20.53;95.88;100364.63;5012786;28;1388;-81
2023/09/18 11:13:55;;;;;;;;;;;;;;;20.68;94.72;100367.88;5028560;28;1316;-81
2023/09/18 11:16:26;;;;;;;;;;;;;;;20.65;94.55;100368.28;5034056;28;1205;-82
2023/09/18 11:18:53;;;;;;;;;;;;;;;20.59;94.14;100377.00;5029744;28;1458;-81
2023/09/18 11:21:23;;;;;;;;;;;;;;;20.48;93.97;100377.59;5029417;28;1559;-81
2023/09/18 11:23:57;;;;;;;;;;;;;;;20.48;92.83;100372.34;5015122;28;1157;-81
2023/09/18 11:26:23;;;;;;;;;;;;;;;20.36;93.65;100379.19;5031427;28;1236;-82
2023/09/18 11:28:50;;;;;;;;;;;;;;;20.33;94.36;100363.75;5033631;28;1952;-81
2023/09/18 11:31:15;;;;;;;;;;;;;;;20.34;93.50;100381.19;5032952;28;1279;-81
2023/09/18 11:33:43;;;;;;;;;;;;;;;20.31;93.96;100381.59;5034505;28;1078;-82
2023/09/18 11:36:12;;;;;;;;;;;;;;;20.28;93.68;100376.72;5027522;28;1579;-77
2023/09/18 11:38:54;;;;;;;;;;;;;;;20.24;94.14;100386.00;5033120;28;1479;-76
2023/09/18 11:41:20;;;;;;;;;;;;;;;20.23;94.19;100387.03;5007526;28;1376;-77
2023/09/18 11:43:46;;;;;;;;;;;;;;;20.25;93.62;100385.03;5013711;28;1582;-75
2023/09/18 11:46:12;;;;;;;;;;;;;;;20.26;93.18;100384.00;5020216;28;1371;-76
2023/09/18 11:48:37;;;;;;;;;;;;;;;20.25;93.66;100377.13;5034667;28;1902;-77
2023/09/18 11:51:04;;;;;;;;;;;;;;;20.29;92.66;100378.31;5036290;28;1118;-75
2023/09/18 11:53:33;;;;;;;;;;;;;;;20.26;92.66;100391.91;5033695;28;1128;-76
2023/09/18 11:55:59;;;;;;;;;;;;;;;20.26;92.65;100394.53;5012455;28;1191;-75
2023/09/18 11:58:24;;;;;;;;;;;;;;;20.26;91.32;100384.00;5015787;28;1252;-76
2023/09/18 12:00:50;;;;;;;;;;;;;;;20.25;91.69;100383.19;5029149;28;1137;-75
2023/09/18 12:03:17;;;;;;;;;;;;;;;20.26;92.27;100378.75;5014792;28;1208;-75
2023/09/18 12:05:43;;;;;;;;;;;;;;;20.27;91.98;100372.47;5013586;28;1225;-77
2023/09/18 12:08:11;;;;;;;;;;;;;;;20.30;92.03;100372.03;5035894;28;1906;-76
2023/09/18 12:10:36;;;;;;;;;;;;;;;20.33;91.94;100369.03;5009039;28;1227;-77
2023/09/18 12:13:06;;;;;;;;;;;;;;;20.38;92.01;100362.16;5031690;28;1156;-76
2023/09/18 12:15:33;;;;;;;;;;;;;;;20.56;91.60;100369.50;5032541;28;1224;-76
2023/09/18 12:18:05;;;;;;;;;;;;;;;20.69;90.27;100364.22;5037023;28;1245;-76
2023/09/18 12:20:31;;;;;;;;;;;;;;;20.75;90.00;100357.31;5012123;28;1358;-77
2023/09/18 12:22:57;;;;;;;;;;;;;;;20.75;89.63;100369.69;5033859;28;1261;-76
2023/09/18 12:25:23;;;;;;;;;;;;;;;20.80;89.97;100360.16;5032050;28;1359;-76
2023/09/18 12:27:52;;;;;;;;;;;;;;;20.92;89.51;100357.72;5032934;28;1216;-78
2023/09/18 12:30:20;;;;;;;;;;;;;;;21.04;88.73;100361.34;5011826;28;2156;-75
2023/09/18 12:32:47;;;;;;;;;;;;;;;21.12;88.41;100361.16;5032377;28;1311;-75